Hope, Kansas
Current Conditions -  °F | °C
As of 7:58 PM on Saturday 25 Oct 2014 (Local Time) from KFRI Reporting Station
Clear Clear  
Wind Chill: 70°   Ceiling: Unl
Heat Index: 70°   Visibility: 10mi
Dew Point: 62°   Wind: 5mph
Humidity: 76%   Direction: 50°NE
Pressure: 29.97"   Gusts: NA
Location:  38.69°N, 97.08°W
Report Text: KFRI 260058Z AUTO 05004KT 10SM CLR 21/17 A2997 RMK AO2 DZB0003E0040 SLP144 P0000 T02100167
Loading
Personal Weather Stations






























Interactive Weather Map
Tropical Storm Tracking
New forecast layout! Learn more

10-Day Weather Forecast

Advertisements
Track Severe Weather on mobile